Millenium Air

Millenium Air Since 1998



 FLIGHT DETAILS
Pilot: MHL096 Giovanni Manserra Aircraft: B737-800X_3_42_FULL IVAO_20TH_ANNIVERSARY Distance: 516NM
Departure LIEA Arrival LIBR Duration 01:24
Validation Validated Type Regular Tail Number I-PESB
ZFW 43111 Block Fuel/Initial FOB 4,183/0 Flight Fuel 3,931
Passengers 181 Cargo 34200 Alternate LIBD
Departure Time Cruise Speed Flight Level 320
Flight Type IFR Aircraft Type B738 Weight Unit Kg
Date 16-07-2020 Pilot Comments Network IVAO
Crashed No Validator Comments Flight Rating 80

 ROUTE
ROUTE KOLUS M603 POKAV M620 SOR M742 LUXIL L995 ROBOT
REMARKS
 FLIGHT FAILURES
Crashed OK Beacon off & Engine Running Fail KIAS Above 250 below 10000 FT OK
Lights OFF below 10000 FT Fail Lights ON above 10000 FT OK Stall Fail
Overspeed OK Flight paused OK Refueling OK
Slew detected OK Taxi & Taxi lights off Fail Take off & lights off Fail
Landing & lights off Fail Landed in not planned airport OK Taxi Speed OK
Wrong altimeter in Take off OK Wrong altimeter in Landing OK
 LANDING ANALYSIS
Landing wind 11º/0 kt Landing heading 45
Landing VS: -546.72 ft/min Landing IAS: 122.67 kt
Landing Force G 1.7 G Landing Bank -0.3
Landing Pitch 5 Landing Flaps 49
Navigation Lights ON Landing Lights OFF
Beacon Lights ON Strobe Lights OFF
 FLIGHT MAP
 ALTITUDE CHART
 FLIGHT FINANCIAL REPORT
Cargo:34200 .Price per Cargo Unit:300 10,260,000.00
Number of PAX:181 .Charter Price per PAX:190 34,390.00
Cargo:34200 .Price per Cargo Unit:500 17,100,000.00
Number of PAX:181 .Price per PAX:200 36,200.00
Servizi di terra -500.00
Tasse aeroportuali -300.00
Pulizia aereomobili -300.00
Servizio catering -900.00
TOTAL 27,428,590.00
 MAIN EVENTS
DATE EVENTIASALTITUDE
2020-07-16 21:08:12 SIM ACARS version 1.4.0094
2020-07-16 21:08:12 BOARDING094
2020-07-16 21:08:12 FLAPS EXTENSION 50 % 094
2020-07-16 21:08:12 STARTING ENGINE 1 094
2020-07-16 21:08:12 STARTING ENGINE 2 094
2020-07-16 21:10:39 FLAPS EXTENSION 37 % 094
2020-07-16 21:10:39 FLAPS EXTENSION 50 % 094
2020-07-16 21:10:40 FLAPS EXTENSION 37 % 094
2020-07-16 21:10:41 FLAPS EXTENSION 50 % 094
2020-07-16 21:10:41 FLAPS EXTENSION 37 % 094
2020-07-16 21:10:42 FLAPS EXTENSION 50 % 094
2020-07-16 21:10:42 FLAPS EXTENSION 37 % 094
2020-07-16 21:10:45 FLAPS EXTENSION 50 % 094
2020-07-16 21:10:45 FLAPS EXTENSION 37 % 094
2020-07-16 21:10:48 FLAPS EXTENSION 50 % 094
2020-07-16 21:10:48 FLAPS EXTENSION 37 % 094
2020-07-16 21:10:50 FLAPS EXTENSION 50 % 094
2020-07-16 21:10:50 FLAPS EXTENSION 37 % 094
2020-07-16 21:10:51 FLAPS EXTENSION 50 % 094
2020-07-16 21:10:51 FLAPS EXTENSION 37 % 094
2020-07-16 21:10:52 FLAPS EXTENSION 50 % 094
2020-07-16 21:10:52 FLAPS EXTENSION 37 % 094
2020-07-16 21:10:52 FLAPS EXTENSION 50 % 094
2020-07-16 21:10:52 FLAPS EXTENSION 37 % 094
2020-07-16 21:10:53 FLAPS EXTENSION 50 % 094
2020-07-16 21:10:53 FLAPS EXTENSION 37 % 094
2020-07-16 21:10:53 FLAPS EXTENSION 50 % 094
2020-07-16 21:10:53 FLAPS EXTENSION 37 % 094
2020-07-16 21:10:53 FLAPS EXTENSION 50 % 094
2020-07-16 21:10:54 FLAPS EXTENSION 37 % 094
2020-07-16 21:10:56 FLAPS EXTENSION 50 % 094
2020-07-16 21:10:56 FLAPS EXTENSION 37 % 094
2020-07-16 21:10:56 FLAPS EXTENSION 50 % 094
2020-07-16 21:10:56 FLAPS EXTENSION 37 % 094
2020-07-16 21:10:57 FLAPS EXTENSION 50 % 094
2020-07-16 21:10:58 FLAPS EXTENSION 37 % 094
2020-07-16 21:11:02 FLAPS EXTENSION 50 % 094
2020-07-16 21:11:02 FLAPS EXTENSION 37 % 094
2020-07-16 21:11:03 FLAPS EXTENSION 50 % 094
2020-07-16 21:11:03 FLAPS EXTENSION 37 % 094
2020-07-16 21:11:04 FLAPS EXTENSION 50 % 094
2020-07-16 21:11:04 FLAPS EXTENSION 37 % 094
2020-07-16 21:11:05 FLAPS EXTENSION 50 % 094
2020-07-16 21:11:05 FLAPS EXTENSION 37 % 094
2020-07-16 21:11:07 FLAPS EXTENSION 50 % 094
2020-07-16 21:11:07 FLAPS EXTENSION 37 % 094
2020-07-16 21:11:08 FLAPS EXTENSION 50 % 094
2020-07-16 21:11:08 FLAPS EXTENSION 37 % 094
2020-07-16 21:11:08 FLAPS EXTENSION 50 % 094
2020-07-16 21:11:09 FLAPS EXTENSION 37 % 094
2020-07-16 21:11:09 FLAPS EXTENSION 50 % 094
2020-07-16 21:11:09 FLAPS EXTENSION 37 % 094
2020-07-16 21:11:10 FLAPS EXTENSION 50 % 094
2020-07-16 21:11:10 FLAPS EXTENSION 37 % 094
2020-07-16 21:11:12 FLAPS EXTENSION 50 % 094
2020-07-16 21:11:12 FLAPS EXTENSION 37 % 094
2020-07-16 21:11:14 FLAPS EXTENSION 50 % 094
2020-07-16 21:11:14 FLAPS EXTENSION 37 % 094
2020-07-16 21:11:16 FLAPS EXTENSION 50 % 094
2020-07-16 21:11:16 FLAPS EXTENSION 37 % 094
2020-07-16 21:11:20 FLAPS EXTENSION 50 % 094
2020-07-16 21:11:20 FLAPS EXTENSION 37 % 094
2020-07-16 21:11:21 FLAPS EXTENSION 50 % 094
2020-07-16 21:11:21 FLAPS EXTENSION 37 % 094
2020-07-16 21:11:29 FLAPS EXTENSION 50 % 094
2020-07-16 21:11:29 FLAPS EXTENSION 37 % 094
2020-07-16 21:11:35 FLAPS EXTENSION 50 % 094
2020-07-16 21:11:35 FLAPS EXTENSION 37 % 094
2020-07-16 21:11:35 FLAPS EXTENSION 50 % 094
2020-07-16 21:11:35 FLAPS EXTENSION 37 % 094
2020-07-16 21:11:42 FLAPS EXTENSION 50 % 094
2020-07-16 21:11:42 FLAPS EXTENSION 37 % 094
2020-07-16 21:11:42 FLAPS EXTENSION 50 % 094
2020-07-16 21:11:42 FLAPS EXTENSION 37 % 094
2020-07-16 21:11:43 FLAPS EXTENSION 50 % 094
2020-07-16 21:11:43 FLAPS EXTENSION 37 % 094
2020-07-16 21:11:45 FLAPS EXTENSION 50 % 094
2020-07-16 21:11:45 FLAPS EXTENSION 37 % 094
2020-07-16 21:11:51 FLAPS EXTENSION 50 % 094
2020-07-16 21:11:51 FLAPS EXTENSION 37 % 094
2020-07-16 21:11:52 FLAPS EXTENSION 50 % 094
2020-07-16 21:11:52 FLAPS EXTENSION 37 % 094
2020-07-16 21:11:53 FLAPS EXTENSION 50 % 094
2020-07-16 21:11:53 FLAPS EXTENSION 37 % 094
2020-07-16 21:11:56 FLAPS EXTENSION 50 % 094
2020-07-16 21:11:56 FLAPS EXTENSION 37 % 094
2020-07-16 21:11:57 FLAPS EXTENSION 50 % 094
2020-07-16 21:11:57 FLAPS EXTENSION 37 % 094
2020-07-16 21:11:58 FLAPS EXTENSION 50 % 094
2020-07-16 21:11:58 FLAPS EXTENSION 37 % 094
2020-07-16 21:11:59 FLAPS EXTENSION 50 % 094
2020-07-16 21:11:59 FLAPS EXTENSION 37 % 094
2020-07-16 21:12:04 FLAPS EXTENSION 50 % 094
2020-07-16 21:12:04 FLAPS EXTENSION 37 % 094
2020-07-16 21:12:05 FLAPS EXTENSION 50 % 094
2020-07-16 21:12:05 FLAPS EXTENSION 37 % 094
2020-07-16 21:12:08 FLAPS EXTENSION 50 % 094
2020-07-16 21:12:08 FLAPS EXTENSION 37 % 094
2020-07-16 21:12:12 FLAPS EXTENSION 50 % 094
2020-07-16 21:12:13 FLAPS EXTENSION 37 % 094
2020-07-16 21:12:13 FLAPS EXTENSION 50 % 094
2020-07-16 21:12:13 FLAPS EXTENSION 37 % 094
2020-07-16 21:12:14 FLAPS EXTENSION 50 % 094
2020-07-16 21:12:14 FLAPS EXTENSION 37 % 094
2020-07-16 21:12:15 FLAPS EXTENSION 50 % 094
2020-07-16 21:12:15 FLAPS EXTENSION 37 % 094
2020-07-16 21:12:19 FLAPS EXTENSION 50 % 094
2020-07-16 21:12:19 FLAPS EXTENSION 37 % 094
2020-07-16 21:12:20 FLAPS EXTENSION 50 % 094
2020-07-16 21:12:20 FLAPS EXTENSION 37 % 094
2020-07-16 21:12:22 FLAPS EXTENSION 50 % 094
2020-07-16 21:12:22 FLAPS EXTENSION 37 % 094
2020-07-16 21:12:24 FLAPS EXTENSION 50 % 094
2020-07-16 21:12:24 FLAPS EXTENSION 37 % 094
2020-07-16 21:12:26 FLAPS EXTENSION 50 % 094
2020-07-16 21:12:26 FLAPS EXTENSION 37 % 094
2020-07-16 21:12:35 FLAPS EXTENSION 50 % 094
2020-07-16 21:12:35 FLAPS EXTENSION 37 % 094
2020-07-16 21:12:36 FLAPS EXTENSION 50 % 094
2020-07-16 21:12:36 FLAPS EXTENSION 37 % 094
2020-07-16 21:12:37 FLAPS EXTENSION 50 % 094
2020-07-16 21:12:37 FLAPS EXTENSION 37 % 094
2020-07-16 21:12:37 FLAPS EXTENSION 50 % 094
2020-07-16 21:12:38 FLAPS EXTENSION 37 % 094
2020-07-16 21:12:44 FLAPS EXTENSION 50 % 094
2020-07-16 21:12:44 FLAPS EXTENSION 37 % 094
2020-07-16 21:12:44 FLAPS EXTENSION 50 % 094
2020-07-16 21:12:45 FLAPS EXTENSION 37 % 094
2020-07-16 21:12:46 FLAPS EXTENSION 50 % 094
2020-07-16 21:12:46 FLAPS EXTENSION 37 % 094
2020-07-16 21:12:48 FLAPS EXTENSION 50 % 094
2020-07-16 21:12:49 FLAPS EXTENSION 37 % 094
2020-07-16 21:12:51 FLAPS EXTENSION 50 % 094
2020-07-16 21:12:51 FLAPS EXTENSION 37 % 094
2020-07-16 21:12:51 FLAPS EXTENSION 50 % 094
2020-07-16 21:12:52 FLAPS EXTENSION 37 % 094
2020-07-16 21:12:52 FLAPS EXTENSION 50 % 094
2020-07-16 21:12:53 FLAPS EXTENSION 37 % 094
2020-07-16 21:12:55 FLAPS EXTENSION 50 % 094
2020-07-16 21:12:56 FLAPS EXTENSION 37 % 094
2020-07-16 21:12:58 FLAPS EXTENSION 50 % 094
2020-07-16 21:12:58 FLAPS EXTENSION 37 % 094
2020-07-16 21:12:59 FLAPS EXTENSION 50 % 094
2020-07-16 21:12:59 FLAPS EXTENSION 37 % 094
2020-07-16 21:13:00 FLAPS EXTENSION 50 % 094
2020-07-16 21:13:00 FLAPS EXTENSION 37 % 094
2020-07-16 21:13:02 FLAPS EXTENSION 50 % 094
2020-07-16 21:13:02 FLAPS EXTENSION 37 % 094
2020-07-16 21:13:05 FLAPS EXTENSION 50 % 094
2020-07-16 21:13:05 FLAPS EXTENSION 37 % 094
2020-07-16 21:13:06 FLAPS EXTENSION 50 % 094
2020-07-16 21:13:06 FLAPS EXTENSION 37 % 094
2020-07-16 21:13:07 FLAPS EXTENSION 50 % 094
2020-07-16 21:13:08 FLAPS EXTENSION 37 % 094
2020-07-16 21:13:10 FLAPS EXTENSION 50 % 094
2020-07-16 21:13:10 FLAPS EXTENSION 37 % 094
2020-07-16 21:13:11 FLAPS EXTENSION 50 % 094
2020-07-16 21:13:11 FLAPS EXTENSION 37 % 094
2020-07-16 21:13:12 FLAPS EXTENSION 50 % 094
2020-07-16 21:13:12 FLAPS EXTENSION 37 % 094
2020-07-16 21:13:15 FLAPS EXTENSION 50 % 094
2020-07-16 21:13:15 FLAPS EXTENSION 37 % 094
2020-07-16 21:13:15 FLAPS EXTENSION 50 % 094
2020-07-16 21:13:16 FLAPS EXTENSION 37 % 094
2020-07-16 21:13:17 FLAPS EXTENSION 50 % 094
2020-07-16 21:13:17 FLAPS EXTENSION 37 % 094
2020-07-16 21:13:19 FLAPS EXTENSION 50 % 094
2020-07-16 21:13:19 FLAPS EXTENSION 37 % 094
2020-07-16 21:13:21 FLAPS EXTENSION 50 % 094
2020-07-16 21:13:21 FLAPS EXTENSION 37 % 094
2020-07-16 21:13:21 FLAPS EXTENSION 50 % 094
2020-07-16 21:13:21 FLAPS EXTENSION 37 % 094
2020-07-16 21:13:23 FLAPS EXTENSION 50 % 094
2020-07-16 21:13:23 FLAPS EXTENSION 37 % 094
2020-07-16 21:13:27 FLAPS EXTENSION 50 % 094
2020-07-16 21:13:27 FLAPS EXTENSION 37 % 094
2020-07-16 21:13:28 FLAPS EXTENSION 50 % 094
2020-07-16 21:13:28 FLAPS EXTENSION 37 % 094
2020-07-16 21:13:28 FLAPS EXTENSION 50 % 094
2020-07-16 21:13:29 FLAPS EXTENSION 37 % 094
2020-07-16 21:13:29 FLAPS EXTENSION 50 % 094
2020-07-16 21:13:29 FLAPS EXTENSION 37 % 094
2020-07-16 21:13:30 FLAPS EXTENSION 50 % 094
2020-07-16 21:13:30 FLAPS EXTENSION 37 % 094
2020-07-16 21:13:31 FLAPS EXTENSION 50 % 094
2020-07-16 21:13:31 FLAPS EXTENSION 37 % 094
2020-07-16 21:13:33 FLAPS EXTENSION 50 % 094
2020-07-16 21:13:33 FLAPS EXTENSION 37 % 094
2020-07-16 21:13:33 FLAPS EXTENSION 50 % 094
2020-07-16 21:13:33 FLAPS EXTENSION 37 % 094
2020-07-16 21:13:35 FLAPS EXTENSION 50 % 094
2020-07-16 21:13:35 FLAPS EXTENSION 37 % 094
2020-07-16 21:13:36 FLAPS EXTENSION 50 % 094
2020-07-16 21:13:36 FLAPS EXTENSION 37 % 094
2020-07-16 21:13:37 FLAPS EXTENSION 50 % 094
2020-07-16 21:13:37 FLAPS EXTENSION 37 % 094
2020-07-16 21:13:38 FLAPS EXTENSION 50 % 094
2020-07-16 21:13:38 FLAPS EXTENSION 37 % 094
2020-07-16 21:13:38 FLAPS EXTENSION 50 % 094
2020-07-16 21:13:38 FLAPS EXTENSION 37 % 094
2020-07-16 21:13:39 FLAPS EXTENSION 50 % 094
2020-07-16 21:13:39 FLAPS EXTENSION 37 % 094
2020-07-16 21:13:39 FLAPS EXTENSION 50 % 094
2020-07-16 21:13:39 FLAPS EXTENSION 37 % 094
2020-07-16 21:13:41 FLAPS EXTENSION 50 % 094
2020-07-16 21:13:41 FLAPS EXTENSION 37 % 094
2020-07-16 21:13:45 FLAPS EXTENSION 50 % 094
2020-07-16 21:13:46 FLAPS EXTENSION 37 % 094
2020-07-16 21:13:46 FLAPS EXTENSION 50 % 094
2020-07-16 21:13:46 FLAPS EXTENSION 37 % 094
2020-07-16 21:13:48 FLAPS EXTENSION 50 % 094
2020-07-16 21:13:48 FLAPS EXTENSION 37 % 094
2020-07-16 21:13:49 FLAPS EXTENSION 50 % 094
2020-07-16 21:13:49 FLAPS EXTENSION 37 % 094
2020-07-16 21:13:50 FLAPS EXTENSION 50 % 094
2020-07-16 21:13:50 FLAPS EXTENSION 37 % 094
2020-07-16 21:13:50 FLAPS EXTENSION 50 % 094
2020-07-16 21:13:50 FLAPS EXTENSION 37 % 094
2020-07-16 21:13:51 FLAPS EXTENSION 50 % 094
2020-07-16 21:13:51 FLAPS EXTENSION 37 % 094
2020-07-16 21:13:55 FLAPS EXTENSION 50 % 094
2020-07-16 21:13:55 FLAPS EXTENSION 37 % 094
2020-07-16 21:13:55 FLAPS EXTENSION 50 % 094
2020-07-16 21:13:56 FLAPS EXTENSION 37 % 094
2020-07-16 21:13:56 FLAPS EXTENSION 50 % 094
2020-07-16 21:13:56 FLAPS EXTENSION 37 % 094
2020-07-16 21:13:57 FLAPS EXTENSION 50 % 094
2020-07-16 21:13:57 FLAPS EXTENSION 37 % 094
2020-07-16 21:13:59 FLAPS EXTENSION 50 % 094
2020-07-16 21:13:59 FLAPS EXTENSION 37 % 094
2020-07-16 21:13:59 FLAPS EXTENSION 50 % 094
2020-07-16 21:14:00 FLAPS EXTENSION 37 % 094
2020-07-16 21:14:01 FLAPS EXTENSION 50 % 294
2020-07-16 21:14:02 FLAPS EXTENSION 37 % 294
2020-07-16 21:14:02 FLAPS EXTENSION 50 % 394
2020-07-16 21:14:02 FLAPS EXTENSION 37 % 394
2020-07-16 21:14:05 TAXI TO THE RWY 794
2020-07-16 21:14:05 TAXING WITH TAXI LIGHTS OFF794
2020-07-16 21:14:06 FLAPS EXTENSION 50 % 894
2020-07-16 21:14:06 FLAPS EXTENSION 37 % 894
2020-07-16 21:14:06 FLAPS EXTENSION 50 % 994
2020-07-16 21:14:06 FLAPS EXTENSION 37 % 994
2020-07-16 21:14:07 FLAPS EXTENSION 50 % 994
2020-07-16 21:14:07 FLAPS EXTENSION 37 % 1094
2020-07-16 21:14:08 FLAPS EXTENSION 50 % 1294
2020-07-16 21:14:08 FLAPS EXTENSION 37 % 1294
2020-07-16 21:14:10 FLAPS EXTENSION 50 % 1294
2020-07-16 21:14:10 FLAPS EXTENSION 37 % 1294
2020-07-16 21:14:11 FLAPS EXTENSION 50 % 1094
2020-07-16 21:14:11 FLAPS EXTENSION 37 % 994
2020-07-16 21:14:12 FLAPS EXTENSION 50 % 694
2020-07-16 21:14:12 FLAPS EXTENSION 37 % 594
2020-07-16 21:14:15 FLAPS EXTENSION 50 % 194
2020-07-16 21:14:15 FLAPS EXTENSION 37 % 194
2020-07-16 21:14:19 FLAPS EXTENSION 50 % 094
2020-07-16 21:14:19 FLAPS EXTENSION 37 % 094
2020-07-16 21:14:20 FLAPS EXTENSION 50 % 094
2020-07-16 21:14:20 FLAPS EXTENSION 37 % 094
2020-07-16 21:14:21 FLAPS EXTENSION 50 % 094
2020-07-16 21:14:21 FLAPS EXTENSION 37 % 094
2020-07-16 21:14:21 FLAPS EXTENSION 50 % 094
2020-07-16 21:14:22 FLAPS EXTENSION 37 % 094
2020-07-16 21:14:22 FLAPS EXTENSION 50 % 094
2020-07-16 21:14:22 FLAPS EXTENSION 37 % 094
2020-07-16 21:14:23 FLAPS EXTENSION 50 % 094
2020-07-16 21:14:23 FLAPS EXTENSION 37 % 094
2020-07-16 21:14:23 FLAPS EXTENSION 50 % 094
2020-07-16 21:14:23 FLAPS EXTENSION 37 % 094
2020-07-16 21:14:24 FLAPS EXTENSION 50 % 094
2020-07-16 21:14:24 FLAPS EXTENSION 37 % 094
2020-07-16 21:14:25 FLAPS EXTENSION 50 % 094
2020-07-16 21:14:25 FLAPS EXTENSION 37 % 094
2020-07-16 21:14:25 FLAPS EXTENSION 50 % 094
2020-07-16 21:14:25 FLAPS EXTENSION 37 % 094
2020-07-16 21:14:25 FLAPS EXTENSION 50 % 094
2020-07-16 21:14:26 FLAPS EXTENSION 37 % 094
2020-07-16 21:14:28 FLAPS EXTENSION 50 % 094
2020-07-16 21:14:29 FLAPS EXTENSION 37 % 094
2020-07-16 21:14:30 FLAPS EXTENSION 50 % 194
2020-07-16 21:14:30 FLAPS EXTENSION 37 % 194
2020-07-16 21:14:31 FLAPS EXTENSION 50 % 194
2020-07-16 21:14:31 FLAPS EXTENSION 37 % 294
2020-07-16 21:14:31 FLAPS EXTENSION 50 % 294
2020-07-16 21:14:31 FLAPS EXTENSION 37 % 294
2020-07-16 21:14:32 FLAPS EXTENSION 50 % 294
2020-07-16 21:14:32 FLAPS EXTENSION 37 % 294
2020-07-16 21:14:34 FLAPS EXTENSION 50 % 394
2020-07-16 21:14:34 FLAPS EXTENSION 37 % 494
2020-07-16 21:14:35 FLAPS EXTENSION 50 % 494
2020-07-16 21:14:35 FLAPS EXTENSION 37 % 494
2020-07-16 21:14:35 FLAPS EXTENSION 50 % 494
2020-07-16 21:14:35 FLAPS EXTENSION 37 % 594
2020-07-16 21:14:36 FLAPS EXTENSION 50 % 594
2020-07-16 21:14:36 FLAPS EXTENSION 37 % 594
2020-07-16 21:14:36 FLAPS EXTENSION 50 % 594
2020-07-16 21:14:37 FLAPS EXTENSION 37 % 694
2020-07-16 21:14:37 FLAPS EXTENSION 50 % 694
2020-07-16 21:14:38 FLAPS EXTENSION 37 % 794
2020-07-16 21:14:38 FLAPS EXTENSION 50 % 794
2020-07-16 21:14:38 FLAPS EXTENSION 37 % 794
2020-07-16 21:14:39 FLAPS EXTENSION 50 % 894
2020-07-16 21:14:39 FLAPS EXTENSION 37 % 894
2020-07-16 21:14:40 FLAPS EXTENSION 50 % 994
2020-07-16 21:14:40 FLAPS EXTENSION 37 % 1094
2020-07-16 21:14:41 FLAPS EXTENSION 50 % 1094
2020-07-16 21:14:41 FLAPS EXTENSION 37 % 1094
2020-07-16 21:14:42 FLAPS EXTENSION 50 % 1294
2020-07-16 21:14:43 FLAPS EXTENSION 37 % 1294
2020-07-16 21:14:43 FLAPS EXTENSION 50 % 1294
2020-07-16 21:14:43 FLAPS EXTENSION 37 % 1294
2020-07-16 21:14:44 FLAPS EXTENSION 50 % 1294
2020-07-16 21:14:44 FLAPS EXTENSION 37 % 1194
2020-07-16 21:14:45 FLAPS EXTENSION 50 % 894
2020-07-16 21:14:45 FLAPS EXTENSION 37 % 894
2020-07-16 21:14:46 FLAPS EXTENSION 50 % 794
2020-07-16 21:14:46 FLAPS EXTENSION 37 % 794
2020-07-16 21:14:48 FLAPS EXTENSION 50 % 694
2020-07-16 21:14:48 FLAPS EXTENSION 37 % 694
2020-07-16 21:14:48 FLAPS EXTENSION 50 % 694
2020-07-16 21:14:48 FLAPS EXTENSION 37 % 694
2020-07-16 21:14:49 FLAPS EXTENSION 50 % 794
2020-07-16 21:14:49 FLAPS EXTENSION 37 % 794
2020-07-16 21:14:50 FLAPS EXTENSION 50 % 894
2020-07-16 21:14:50 FLAPS EXTENSION 37 % 894
2020-07-16 21:14:51 FLAPS EXTENSION 50 % 994
2020-07-16 21:14:52 FLAPS EXTENSION 37 % 994
2020-07-16 21:14:52 FLAPS EXTENSION 50 % 1094
2020-07-16 21:14:52 FLAPS EXTENSION 37 % 1094
2020-07-16 21:14:54 FLAPS EXTENSION 50 % 1194
2020-07-16 21:14:54 FLAPS EXTENSION 37 % 1194
2020-07-16 21:14:55 FLAPS EXTENSION 50 % 1294
2020-07-16 21:14:55 FLAPS EXTENSION 37 % 1294
2020-07-16 21:14:56 FLAPS EXTENSION 50 % 1294
2020-07-16 21:14:56 FLAPS EXTENSION 37 % 1294
2020-07-16 21:14:56 FLAPS EXTENSION 50 % 1294
2020-07-16 21:14:56 FLAPS EXTENSION 37 % 1294
2020-07-16 21:14:56 FLAPS EXTENSION 50 % 1294
2020-07-16 21:14:57 FLAPS EXTENSION 37 % 1294
2020-07-16 21:14:57 FLAPS EXTENSION 50 % 1294
2020-07-16 21:14:57 FLAPS EXTENSION 37 % 1294
2020-07-16 21:14:59 FLAPS EXTENSION 50 % 1294
2020-07-16 21:14:59 FLAPS EXTENSION 37 % 1294
2020-07-16 21:15:00 FLAPS EXTENSION 50 % 1294
2020-07-16 21:15:00 FLAPS EXTENSION 37 % 1394
2020-07-16 21:15:01 FLAPS EXTENSION 50 % 1394
2020-07-16 21:15:01 FLAPS EXTENSION 37 % 1394
2020-07-16 21:15:01 FLAPS EXTENSION 50 % 1394
2020-07-16 21:15:01 FLAPS EXTENSION 37 % 1394
2020-07-16 21:15:02 FLAPS EXTENSION 50 % 1394
2020-07-16 21:15:02 FLAPS EXTENSION 37 % 1394
2020-07-16 21:15:02 FLAPS EXTENSION 50 % 1394
2020-07-16 21:15:02 FLAPS EXTENSION 37 % 1394
2020-07-16 21:15:03 FLAPS EXTENSION 50 % 1394
2020-07-16 21:15:03 FLAPS EXTENSION 37 % 1494
2020-07-16 21:15:04 FLAPS EXTENSION 50 % 1494
2020-07-16 21:15:04 FLAPS EXTENSION 37 % 1494
2020-07-16 21:15:05 FLAPS EXTENSION 50 % 1494
2020-07-16 21:15:05 FLAPS EXTENSION 37 % 1494
2020-07-16 21:15:06 FLAPS EXTENSION 50 % 1594
2020-07-16 21:15:06 FLAPS EXTENSION 37 % 1594
2020-07-16 21:15:07 FLAPS EXTENSION 50 % 1594
2020-07-16 21:15:07 FLAPS EXTENSION 37 % 1694
2020-07-16 21:15:08 FLAPS EXTENSION 50 % 1694
2020-07-16 21:15:09 FLAPS EXTENSION 37 % 1694
2020-07-16 21:15:10 FLAPS EXTENSION 50 % 1794
2020-07-16 21:15:11 FLAPS EXTENSION 37 % 1894
2020-07-16 21:15:13 FLAPS EXTENSION 50 % 1994
2020-07-16 21:15:14 FLAPS EXTENSION 37 % 1994
2020-07-16 21:15:14 FLAPS EXTENSION 50 % 1994
2020-07-16 21:15:14 FLAPS EXTENSION 37 % 1994
2020-07-16 21:15:14 FLAPS EXTENSION 50 % 1994
2020-07-16 21:15:15 FLAPS EXTENSION 37 % 2094
2020-07-16 21:15:15 FLAPS EXTENSION 50 % 2094
2020-07-16 21:15:15 FLAPS EXTENSION 37 % 2094
2020-07-16 21:15:15 FLAPS EXTENSION 50 % 2094
2020-07-16 21:15:16 FLAPS EXTENSION 37 % 2094
2020-07-16 21:15:17 FLAPS EXTENSION 50 % 2194
2020-07-16 21:15:17 FLAPS EXTENSION 37 % 2194
2020-07-16 21:15:17 FLAPS EXTENSION 50 % 2194
2020-07-16 21:15:18 FLAPS EXTENSION 37 % 2194
2020-07-16 21:15:18 FLAPS EXTENSION 50 % 2294
2020-07-16 21:15:19 FLAPS EXTENSION 37 % 2294
2020-07-16 21:15:19 FLAPS EXTENSION 50 % 2294
2020-07-16 21:15:19 FLAPS EXTENSION 37 % 2294
2020-07-16 21:15:20 FLAPS EXTENSION 50 % 2394
2020-07-16 21:15:20 FLAPS EXTENSION 37 % 2394
2020-07-16 21:15:21 FLAPS EXTENSION 50 % 2394
2020-07-16 21:15:21 FLAPS EXTENSION 37 % 2394
2020-07-16 21:15:21 FLAPS EXTENSION 50 % 2394
2020-07-16 21:15:21 FLAPS EXTENSION 37 % 2394
2020-07-16 21:15:21 FLAPS EXTENSION 50 % 2394
2020-07-16 21:15:22 FLAPS EXTENSION 37 % 2494
2020-07-16 21:15:22 FLAPS EXTENSION 50 % 2494
2020-07-16 21:15:22 FLAPS EXTENSION 37 % 2494
2020-07-16 21:15:23 FLAPS EXTENSION 50 % 2494
2020-07-16 21:15:23 FLAPS EXTENSION 37 % 2494
2020-07-16 21:15:23 FLAPS EXTENSION 50 % 2494
2020-07-16 21:15:24 FLAPS EXTENSION 37 % 2594
2020-07-16 21:15:24 FLAPS EXTENSION 50 % 2594
2020-07-16 21:15:24 FLAPS EXTENSION 37 % 2594
2020-07-16 21:15:26 FLAPS EXTENSION 50 % 2594
2020-07-16 21:15:26 FLAPS EXTENSION 37 % 2594
2020-07-16 21:15:26 FLAPS EXTENSION 50 % 2594
2020-07-16 21:15:26 FLAPS EXTENSION 37 % 2694
2020-07-16 21:15:27 FLAPS EXTENSION 50 % 2694
2020-07-16 21:15:27 FLAPS EXTENSION 37 % 2694
2020-07-16 21:15:28 FLAPS EXTENSION 50 % 2694
2020-07-16 21:15:28 FLAPS EXTENSION 37 % 2694
2020-07-16 21:15:28 FLAPS EXTENSION 50 % 2694
2020-07-16 21:15:28 FLAPS EXTENSION 37 % 2694
2020-07-16 21:15:29 FLAPS EXTENSION 50 % 2694
2020-07-16 21:15:29 FLAPS EXTENSION 37 % 2694
2020-07-16 21:15:30 FLAPS EXTENSION 50 % 2694
2020-07-16 21:15:30 FLAPS EXTENSION 37 % 2694
2020-07-16 21:15:31 FLAPS EXTENSION 50 % 2694
2020-07-16 21:15:31 FLAPS EXTENSION 37 % 2694
2020-07-16 21:15:31 FLAPS EXTENSION 50 % 2694
2020-07-16 21:15:31 FLAPS EXTENSION 37 % 2694
2020-07-16 21:15:32 FLAPS EXTENSION 12 % 2694
2020-07-16 21:15:32 FLAPS EXTENSION 0 % 2694
2020-07-16 21:15:33 FLAPS EXTENSION 12 % 2694
2020-07-16 21:15:34 FLAPS EXTENSION 25 % 2694
2020-07-16 21:15:34 FLAPS EXTENSION 37 % 2694
2020-07-16 21:19:27 ROLLING FOR TAKE OFF4294
2020-07-16 21:20:12 TAKE OFF13896
2020-07-16 21:20:12 TAKE OFF WITH LIGHTS OFF13896
2020-07-16 21:20:12 LIGHTS OFF BELOW 10000 ft13896
2020-07-16 21:20:14 STALL137107
2020-07-16 21:20:16 RECOVER FROM STALL131162
2020-07-16 21:20:40 GEAR UP161867
2020-07-16 21:20:42 GEAR DOWN163962
2020-07-16 21:20:42 GEAR UP163992
2020-07-16 21:20:46 BEACON LIGHT OFF & ENGINE ON1651227
2020-07-16 21:21:02 FLAPS EXTENSION 25 % 1632242
2020-07-16 21:21:23 FLAPS EXTENSION 12 % 1963020
2020-07-16 21:21:42 FLAPS EXTENSION 0 % 2003666
2020-07-16 21:25:02 CRUISE29010999
2020-07-16 21:25:42 CLIMBING28912065
2020-07-16 21:31:32 CRUISE29623997
2020-07-16 21:36:52 CLIMBING29924662
2020-07-16 21:42:22 CRUISE30031997
2020-07-16 22:05:42 DESCEND27431632
2020-07-16 22:26:42 CRUISE24011002
2020-07-16 22:27:12 DESCEND24210613
2020-07-16 22:29:52 FLAPS EXTENSION 12 % 2526888
2020-07-16 22:32:01 FLAPS EXTENSION 0 % 2203605
2020-07-16 22:32:02 FLAPS EXTENSION 12 % 2193585
2020-07-16 22:32:03 FLAPS EXTENSION 25 % 2193579
2020-07-16 22:33:02 CRUISE2003000
2020-07-16 22:34:28 FLAPS EXTENSION 37 % 1792998
2020-07-16 22:34:28 FLAPS EXTENSION 50 % 1792998
2020-07-16 22:34:51 FLAPS EXTENSION 62 % 1733002
2020-07-16 22:34:56 GEAR DOWN1673003
2020-07-16 22:35:36 FLAPS EXTENSION 75 % 1633000
2020-07-16 22:36:11 FLAPS EXTENSION 87 % 1502999
2020-07-16 22:40:02 DESCEND1362875
2020-07-16 22:42:12 CRUISE1352026
2020-07-16 22:44:28 FLAPS EXTENSION 100 % 1352179
2020-07-16 22:44:32 CLIMBING1342205
2020-07-16 22:46:22 DESCEND1441614
2020-07-16 22:47:40 LANDING WITH LANDING LIGHTS OFF12357
2020-07-16 22:47:40 LANDING12357
2020-07-16 22:48:06 TAXI TO THE GATE2056
 ACARS DATA
DATE IASGSALTITUDEFUEL CONSUMED OATFLIGHT STATUS
2020-07-16 21:09:1200931017BOARDING
2020-07-16 21:10:1202932017BOARDING
2020-07-16 21:11:1200932917BOARDING
2020-07-16 21:12:1200933917BOARDING
2020-07-16 21:13:1200934917BOARDING
2020-07-16 21:14:1240936517TAXI TO THE RWY
2020-07-16 21:15:121819938717TAXI TO THE RWY
2020-07-16 21:16:122525939917TAXI TO THE RWY
2020-07-16 21:17:1220199310817TAXI TO THE RWY
2020-07-16 21:18:12009311817TAXI TO THE RWY
2020-07-16 21:19:129169314017TAXI TO THE RWY
2020-07-16 21:20:121371389620417CLIMBING
2020-07-16 21:21:12181194261932412CLIMBING
2020-07-16 21:22:1222925151794227CLIMBING
2020-07-16 21:23:1224026977314972CLIMBING
2020-07-16 21:24:1223927910256571-2CLIMBING
2020-07-16 21:25:1229034011002640-4CRUISE
2020-07-16 21:26:1228935113330712-9CLIMBING
2020-07-16 21:27:1228936515828787-14CLIMBING
2020-07-16 21:28:1228937818325859-19CLIMBING
2020-07-16 21:29:1228939020499929-24CLIMBING
2020-07-16 21:30:1228940322503995-28CLIMBING
2020-07-16 21:31:12297424239851059-31CLIMBING
2020-07-16 21:32:12287410239981096-31CRUISE
2020-07-16 21:33:12290410239971138-31CRUISE
2020-07-16 21:34:12294418239991182-31CRUISE
2020-07-16 21:35:12300428240001227-31CRUISE
2020-07-16 21:36:12312440239991278-31CRUISE
2020-07-16 21:37:12302438251711332-33CLIMBING
2020-07-16 21:38:12308454266711397-36CLIMBING
2020-07-16 21:39:12305462281671458-39CLIMBING
2020-07-16 21:40:12306472296671520-43CLIMBING
2020-07-16 21:41:12304481311641582-46CLIMBING
2020-07-16 21:42:12303484319951635-47CLIMBING
2020-07-16 21:43:12292469319991672-47CRUISE
2020-07-16 21:44:12286461319991710-47CRUISE
2020-07-16 21:45:12283457320001748-47CRUISE
2020-07-16 21:46:12286461319991789-47CRUISE
2020-07-16 21:47:12291468320001833-47CRUISE
2020-07-16 21:48:12298479320001879-47CRUISE
2020-07-16 21:49:12299478319991923-47CRUISE
2020-07-16 21:50:12301482320001968-47CRUISE
2020-07-16 21:51:12305489320002016-47CRUISE
2020-07-16 21:52:12308492319992064-47CRUISE
2020-07-16 21:53:12289462319982097-47CRUISE
2020-07-16 21:54:12269437320002124-47CRUISE
2020-07-16 21:55:12270437319992160-47CRUISE
2020-07-16 21:56:12270437319992195-47CRUISE
2020-07-16 21:57:12270437319992230-47CRUISE
2020-07-16 21:58:12270437319992266-47CRUISE
2020-07-16 21:59:12270437319992302-47CRUISE
2020-07-16 22:00:12270437319992338-47CRUISE
2020-07-16 22:01:12270437319992374-47CRUISE
2020-07-16 22:02:12270437319992410-47CRUISE
2020-07-16 22:03:12270437319992446-47CRUISE
2020-07-16 22:04:12270437319992481-47CRUISE
2020-07-16 22:05:12270437319992516-47CRUISE
2020-07-16 22:06:12274437311282544-46DESCEND
2020-07-16 22:07:12280439301292573-43DESCEND
2020-07-16 22:08:12279431291282598-41DESCEND
2020-07-16 22:09:12280425281272624-39DESCEND
2020-07-16 22:10:12280418271192651-37DESCEND
2020-07-16 22:11:12280412261082677-35DESCEND
2020-07-16 22:12:12280406250992704-33DESCEND
2020-07-16 22:13:12276396240902728-31DESCEND
2020-07-16 22:14:12279393230762756-29DESCEND
2020-07-16 22:15:12280387220622782-27DESCEND
2020-07-16 22:16:12280381210482810-25DESCEND
2020-07-16 22:17:12280376200342836-23DESCEND
2020-07-16 22:18:12280370190212862-20DESCEND
2020-07-16 22:19:12280364180082889-18DESCEND
2020-07-16 22:20:12280359169972916-16DESCEND
2020-07-16 22:21:12280354159892943-14DESCEND
2020-07-16 22:22:12280348149842969-12DESCEND
2020-07-16 22:23:12280343139832996-10DESCEND
2020-07-16 22:24:12276333129823021-8DESCEND
2020-07-16 22:25:12269319119783042-6DESCEND
2020-07-16 22:26:12242283110323052-4DESCEND
2020-07-16 22:27:12242283106103078-3DESCEND
2020-07-16 22:28:1224127896053094-1DESCEND
2020-07-16 22:29:12247279802231061DESCEND
2020-07-16 22:30:12245269634331165DESCEND
2020-07-16 22:31:12230247463831278DESCEND
2020-07-16 22:32:122172293420314411DESCEND
2020-07-16 22:33:121992093001317611CRUISE
2020-07-16 22:34:121791893000321111CRUISE
2020-07-16 22:35:121621703000325811CRUISE
2020-07-16 22:36:121491572999332811CRUISE
2020-07-16 22:37:121351423000339811CRUISE
2020-07-16 22:38:121341423000347311CRUISE
2020-07-16 22:39:121341412999354711CRUISE
2020-07-16 22:40:121351422795361512DESCEND
2020-07-16 22:41:121351402292367513DESCEND
2020-07-16 22:42:121341392025374213CRUISE
2020-07-16 22:43:121351402026381513CRUISE
2020-07-16 22:44:121331382095389213CRUISE
2020-07-16 22:45:121311372180397413CLIMBING
2020-07-16 22:46:121411461821405714CLIMBING
2020-07-16 22:47:12140142466411716DESCEND
2020-07-16 22:48:120055416317TAXI TO THE GATE